Time;durP1;ratioP1;P1;durP2;ratioP2;P2;SDS_P1;SDS_P2;PMS_P1;PMS_P2;Temp;Humidity;BMP_temperature;BMP_pressure;BME280_temperature;BME280_humidity;BME280_pressure;Samples;Min_cycle;Max_cycle;Signal;HPM_P1;HPM_P2
2021/10/21 00:02:42;;;;;;;6.17;0.93;;;;;;;;;;10340162;28;20033;-63
2021/10/21 00:07:40;;;;;;;6.27;1.30;;;;;;;;;;10341640;28;20029;-62
2021/10/21 00:12:37;;;;;;;0.73;0.70;;;;;;;;;;10336962;28;20347;-65
2021/10/21 00:17:36;;;;;;;5.93;1.60;;;;;;;;;;10338939;28;20447;-63
2021/10/21 00:22:33;;;;;;;5.20;1.50;;;;;;;;;;10335862;28;20119;-63
2021/10/21 00:27:31;;;;;;;9.23;1.63;;;;;;;;;;10334296;28;20128;-63
2021/10/21 00:32:32;;;;;;;9.07;1.73;;;;;;;;;;10338749;28;20040;-61
2021/10/21 00:37:29;;;;;;;9.05;2.60;;;;;;;;;;10333107;28;20090;-61
2021/10/21 00:42:27;;;;;;;13.20;2.90;;;;;;;;;;10335723;28;20033;-61
2021/10/21 00:47:24;;;;;;;12.83;4.00;;;;;;;;;;10338302;28;20037;-62
2021/10/21 00:52:23;;;;;;;9.73;3.23;;;;;;;;;;10308792;28;20083;-67
2021/10/21 00:57:20;;;;;;;;;;;;;;;;;;10293992;28;20025;-65
2021/10/21 01:02:18;;;;;;;10.07;3.13;;;;;;;;;;10322105;28;19917;-61
2021/10/21 01:07:15;;;;;;;7.30;2.27;;;;;;;;;;10309459;28;20045;-65
2021/10/21 01:12:13;;;;;;;11.20;4.20;;;;;;;;;;10319384;28;20037;-62
2021/10/21 01:17:14;;;;;;;10.25;4.55;;;;;;;;;;10339850;28;20033;-62
2021/10/21 01:22:12;;;;;;;3.20;2.05;;;;;;;;;;10343284;28;20033;-63
2021/10/21 01:27:09;;;;;;;13.13;5.10;;;;;;;;;;10337896;28;20188;-64
2021/10/21 01:32:07;;;;;;;7.00;3.33;;;;;;;;;;10321224;28;20495;-64
2021/10/21 01:37:04;;;;;;;9.43;4.00;;;;;;;;;;10298909;28;20132;-63
2021/10/21 01:42:01;;;;;;;12.93;5.10;;;;;;;;;;10293390;28;20049;-62
2021/10/21 01:46:59;;;;;;;3.77;2.27;;;;;;;;;;10298597;28;20037;-65
2021/10/21 01:51:56;;;;;;;6.23;3.40;;;;;;;;;;10295890;28;20033;-63
2021/10/21 01:56:54;;;;;;;16.17;5.57;;;;;;;;;;10298573;28;20045;-63
2021/10/21 02:01:51;;;;;;;6.17;3.57;;;;;;;;;;10296840;28;20033;-65
2021/10/21 02:06:49;;;;;;;9.00;4.03;;;;;;;;;;10307758;28;20037;-62
2021/10/21 02:11:46;;;;;;;6.57;4.13;;;;;;;;;;10328959;28;20135;-62
2021/10/21 02:16:43;;;;;;;5.50;3.97;;;;;;;;;;10314180;28;20037;-63
2021/10/21 02:21:41;;;;;;;14.83;6.53;;;;;;;;;;10287545;28;20060;-66
2021/10/21 02:26:38;;;;;;;7.57;4.73;;;;;;;;;;10296115;28;20721;-62
2021/10/21 02:31:36;;;;;;;11.37;6.23;;;;;;;;;;10303883;28;20160;-63
2021/10/21 02:36:33;;;;;;;13.53;7.47;;;;;;;;;;10322173;28;20030;-63
2021/10/21 02:41:31;;;;;;;14.40;7.07;;;;;;;;;;10294383;28;20028;-63
2021/10/21 02:46:28;;;;;;;16.20;7.27;;;;;;;;;;10299920;28;20032;-64
2021/10/21 02:51:26;;;;;;;14.23;6.10;;;;;;;;;;10326302;28;20284;-63
2021/10/21 02:56:23;;;;;;;8.50;3.57;;;;;;;;;;10315631;28;20044;-63
2021/10/21 03:01:21;;;;;;;8.60;4.23;;;;;;;;;;10334718;28;20044;-62
2021/10/21 03:06:18;;;;;;;7.90;5.77;;;;;;;;;;10309257;28;20398;-65
2021/10/21 03:11:16;;;;;;;5.13;2.93;;;;;;;;;;10334173;28;20049;-64
2021/10/21 03:16:13;;;;;;;13.73;5.27;;;;;;;;;;10312167;28;20037;-63
2021/10/21 03:21:10;;;;;;;12.37;5.47;;;;;;;;;;10335562;28;20503;-64
2021/10/21 03:26:08;;;;;;;7.00;4.10;;;;;;;;;;10296502;28;20052;-63
2021/10/21 03:31:05;;;;;;;4.83;3.50;;;;;;;;;;10308686;28;20044;-63
2021/10/21 03:36:03;;;;;;;10.10;5.27;;;;;;;;;;10336519;28;20044;-63
2021/10/21 03:41:00;;;;;;;10.20;4.70;;;;;;;;;;10294370;28;20029;-63
2021/10/21 03:45:58;;;;;;;8.23;3.03;;;;;;;;;;10295001;28;20261;-64
2021/10/21 03:50:55;;;;;;;10.87;5.70;;;;;;;;;;10302717;28;20045;-64
2021/10/21 03:55:54;;;;;;;7.17;3.67;;;;;;;;;;10302039;28;20033;-64
2021/10/21 04:00:51;;;;;;;;;;;;;;;;;;10291029;28;20425;-64
2021/10/21 04:05:48;;;;;;;5.93;2.90;;;;;;;;;;10306732;28;20370;-62
2021/10/21 04:10:46;;;;;;;5.63;2.67;;;;;;;;;;10290259;28;20037;-63
2021/10/21 04:15:43;;;;;;;3.00;1.70;;;;;;;;;;10298344;28;20036;-66
2021/10/21 04:20:41;;;;;;;2.60;1.70;;;;;;;;;;10299218;28;20040;-63
2021/10/21 04:25:38;;;;;;;0.80;0.63;;;;;;;;;;10300667;28;20026;-64
2021/10/21 04:30:36;;;;;;;1.60;0.77;;;;;;;;;;10334929;28;20029;-66
2021/10/21 04:35:33;;;;;;;2.03;0.73;;;;;;;;;;10280127;28;20803;-63
2021/10/21 04:40:31;;;;;;;0.67;0.60;;;;;;;;;;10289050;28;20036;-66
2021/10/21 04:45:28;;;;;;;2.70;0.70;;;;;;;;;;10288730;28;20104;-65
2021/10/21 04:50:26;;;;;;;0.73;0.37;;;;;;;;;;10333716;28;20079;-63
2021/10/21 04:55:24;;;;;;;4.23;0.57;;;;;;;;;;10290435;28;20056;-66
2021/10/21 05:00:21;;;;;;;3.80;0.65;;;;;;;;;;10331488;28;20036;-62
2021/10/21 05:05:20;;;;;;;0.70;0.30;;;;;;;;;;10287435;28;20446;-66
2021/10/21 05:10:17;;;;;;;2.45;1.23;;;;;;;;;;10290628;28;20072;-64
2021/10/21 05:15:14;;;;;;;1.30;0.50;;;;;;;;;;10285202;28;20124;-62
2021/10/21 05:20:12;;;;;;;2.27;0.50;;;;;;;;;;10327718;28;20044;-62
2021/10/21 05:25:10;;;;;;;3.53;0.30;;;;;;;;;;10292216;28;20037;-63
2021/10/21 05:30:08;;;;;;;1.38;0.60;;;;;;;;;;10342113;28;20041;-63
2021/10/21 05:35:05;;;;;;;2.33;0.32;;;;;;;;;;10304164;28;20087;-63
2021/10/21 05:40:03;;;;;;;1.20;0.50;;;;;;;;;;10342069;28;20045;-64
2021/10/21 05:45:01;;;;;;;2.20;0.93;;;;;;;;;;10294165;28;20040;-63
2021/10/21 05:49:58;;;;;;;1.30;0.50;;;;;;;;;;10336411;28;20037;-65
2021/10/21 05:54:56;;;;;;;1.83;0.35;;;;;;;;;;10305078;28;20143;-64
2021/10/21 05:59:53;;;;;;;0.30;0.30;;;;;;;;;;10334799;28;20041;-64
2021/10/21 06:04:51;;;;;;;0.97;0.40;;;;;;;;;;10290020;28;20339;-62
2021/10/21 06:09:51;;;;;;;2.17;0.50;;;;;;;;;;10269245;28;20042;-62
2021/10/21 06:14:49;;;;;;;0.70;0.50;;;;;;;;;;10281000;28;20512;-62
2021/10/21 06:19:46;;;;;;;4.07;0.80;;;;;;;;;;10274769;28;20438;-62
2021/10/21 06:24:46;;;;;;;3.67;1.17;;;;;;;;;;10278448;28;20135;-63
2021/10/21 06:29:44;;;;;;;3.85;0.47;;;;;;;;;;10289994;28;20129;-62
2021/10/21 06:34:42;;;;;;;2.60;0.90;;;;;;;;;;10286871;28;20125;-62
2021/10/21 06:39:39;;;;;;;1.17;0.73;;;;;;;;;;10286308;28;20042;-62
2021/10/21 06:44:37;;;;;;;1.90;0.43;;;;;;;;;;10276427;28;20539;-62
2021/10/21 06:49:34;;;;;;;1.33;0.50;;;;;;;;;;10287348;28;20037;-62
2021/10/21 06:54:31;;;;;;;4.20;0.50;;;;;;;;;;10269923;28;20034;-62
2021/10/21 06:59:29;;;;;;;4.93;0.93;;;;;;;;;;10284815;28;20041;-62
2021/10/21 07:04:27;;;;;;;5.43;1.00;;;;;;;;;;10278720;28;20490;-62
2021/10/21 07:09:25;;;;;;;6.30;1.45;;;;;;;;;;10285500;28;20526;-62
2021/10/21 07:14:23;;;;;;;7.72;1.33;;;;;;;;;;10291215;28;20034;-62
2021/10/21 07:19:20;;;;;;;7.23;1.00;;;;;;;;;;10285537;28;20499;-62
2021/10/21 07:24:17;;;;;;;5.10;0.90;;;;;;;;;;10283649;28;20037;-62
2021/10/21 07:29:15;;;;;;;7.53;1.10;;;;;;;;;;10315112;28;20071;-63
2021/10/21 07:34:12;;;;;;;4.27;0.90;;;;;;;;;;10299931;28;20378;-63
2021/10/21 07:39:10;;;;;;;6.13;1.07;;;;;;;;;;10288351;28;20513;-62
2021/10/21 07:44:08;;;;;;;7.43;0.80;;;;;;;;;;10285373;28;20408;-62
2021/10/21 07:49:06;;;;;;;6.47;1.23;;;;;;;;;;10264664;28;20045;-62
2021/10/21 07:54:03;;;;;;;24.37;8.27;;;;;;;;;;10282306;28;20033;-62
2021/10/21 07:59:01;;;;;;;11.53;5.50;;;;;;;;;;10282036;28;20041;-62
2021/10/21 08:03:59;;;;;;;6.47;2.33;;;;;;;;;;10289178;28;20486;-62
2021/10/21 08:08:57;;;;;;;3.87;1.90;;;;;;;;;;10278797;28;20462;-62
2021/10/21 08:13:54;;;;;;;4.23;1.60;;;;;;;;;;10281264;28;20285;-62
2021/10/21 08:18:52;;;;;;;5.40;1.60;;;;;;;;;;10283610;28;20130;-62
2021/10/21 08:23:53;;;;;;;5.83;0.97;;;;;;;;;;10281539;28;20180;-62
2021/10/21 08:28:51;;;;;;;7.45;1.08;;;;;;;;;;10295961;28;20038;-62
2021/10/21 08:33:48;;;;;;;6.20;1.27;;;;;;;;;;10307685;28;20037;-63
2021/10/21 08:38:47;;;;;;;6.37;1.07;;;;;;;;;;10307206;28;20120;-63
2021/10/21 08:43:44;;;;;;;;;;;;;;;;;;10312340;28;20529;-62
2021/10/21 08:48:44;;;;;;;12.07;1.40;;;;;;;;;;10286701;28;19920;-62
2021/10/21 08:53:41;;;;;;;11.85;1.67;;;;;;;;;;10280710;28;20475;-62
2021/10/21 08:58:39;;;;;;;7.07;1.33;;;;;;;;;;10275295;28;20041;-62
2021/10/21 09:03:46;;;;;;;12.43;1.60;;;;;;;;;;10288424;28;20034;-62
2021/10/21 09:08:43;;;;;;;7.13;1.13;;;;;;;;;;10269043;28;20038;-62
2021/10/21 09:13:41;;;;;;;10.73;1.53;;;;;;;;;;10276803;28;20026;-62
2021/10/21 09:18:42;;;;;;;5.13;1.53;;;;;;;;;;10286586;28;20581;-62
2021/10/21 09:23:40;;;;;;;8.40;1.35;;;;;;;;;;10304689;28;20044;-62
2021/10/21 09:28:37;;;;;;;9.77;1.30;;;;;;;;;;10325907;28;20048;-62
2021/10/21 09:33:42;;;;;;;13.18;1.35;;;;;;;;;;10327825;28;20037;-62
2021/10/21 09:38:50;;;;;;;10.15;3.03;;;;;;;;;;10326655;28;20419;-62
2021/10/21 09:43:49;;;;;;;9.53;1.50;;;;;;;;;;10314151;28;20037;-62
2021/10/21 09:48:46;;;;;;;5.60;1.73;;;;;;;;;;10300776;28;20302;-63
2021/10/21 09:53:44;;;;;;;3.33;1.37;;;;;;;;;;10318761;28;20036;-63
2021/10/21 09:58:41;;;;;;;5.37;1.43;;;;;;;;;;10329540;28;20029;-63
2021/10/21 10:03:41;;;;;;;14.50;2.33;;;;;;;;;;10312327;28;20155;-63
2021/10/21 10:08:39;;;;;;;6.22;1.77;;;;;;;;;;10320313;28;20045;-63
2021/10/21 10:13:42;;;;;;;14.30;1.95;;;;;;;;;;10321183;28;20065;-62
2021/10/21 10:18:43;;;;;;;4.72;1.55;;;;;;;;;;10338619;28;20077;-64
2021/10/21 10:23:51;;;;;;;6.13;1.45;;;;;;;;;;10340545;28;20041;-62
2021/10/21 10:28:49;;;;;;;7.28;1.73;;;;;;;;;;10342613;28;20033;-65
2021/10/21 10:33:46;;;;;;;4.60;1.27;;;;;;;;;;10323613;28;20032;-63
2021/10/21 10:38:44;;;;;;;8.87;1.60;;;;;;;;;;10320809;28;20039;-63
2021/10/21 10:43:41;;;;;;;9.73;1.27;;;;;;;;;;10294051;28;20037;-63
2021/10/21 10:48:54;;;;;;;12.03;2.00;;;;;;;;;;10299287;28;20134;-64
2021/10/21 10:53:52;;;;;;;7.00;0.80;;;;;;;;;;10300743;28;20040;-64
2021/10/21 10:59:10;;;;;;;8.57;1.17;;;;;;;;;;10311072;28;20041;-64
2021/10/21 11:04:07;;;;;;;9.15;1.40;;;;;;;;;;10313065;28;20045;-64
2021/10/21 11:09:08;;;;;;;1.63;1.10;;;;;;;;;;10311859;28;20476;-64
2021/10/21 11:14:08;;;;;;;5.70;0.77;;;;;;;;;;10319565;28;20047;-64
2021/10/21 11:19:06;;;;;;;4.95;0.82;;;;;;;;;;10328053;28;20033;-64
2021/10/21 11:24:03;;;;;;;8.80;0.83;;;;;;;;;;10332209;28;20040;-64
2021/10/21 11:29:02;;;;;;;0.57;0.20;;;;;;;;;;10324743;28;20403;-65
2021/10/21 11:33:59;;;;;;;;;;;;;;;;;;10330442;28;20060;-64
2021/10/21 11:39:04;;;;;;;3.37;0.70;;;;;;;;;;10336817;28;19917;-65
2021/10/21 11:44:01;;;;;;;10.55;1.95;;;;;;;;;;10298877;28;20041;-65
2021/10/21 11:48:59;;;;;;;1.60;0.53;;;;;;;;;;10298143;28;20107;-64
2021/10/21 11:54:05;;;;;;;3.90;1.13;;;;;;;;;;10324341;28;20521;-65
2021/10/21 11:59:03;;;;;;;7.70;1.20;;;;;;;;;;10340807;28;20079;-66
2021/10/21 12:04:04;;;;;;;3.60;0.70;;;;;;;;;;10333667;28;20080;-65
2021/10/21 12:09:04;;;;;;;7.78;1.17;;;;;;;;;;10338370;28;20532;-65
2021/10/21 12:14:02;;;;;;;3.33;0.95;;;;;;;;;;10340418;28;20429;-65
2021/10/21 12:19:04;;;;;;;6.47;1.60;;;;;;;;;;10324624;28;20064;-65
2021/10/21 12:24:02;;;;;;;3.10;1.15;;;;;;;;;;10335444;28;20037;-65
2021/10/21 12:29:05;;;;;;;9.67;1.03;;;;;;;;;;10335410;28;20707;-64
2021/10/21 12:34:04;;;;;;;4.45;1.30;;;;;;;;;;10346331;28;20033;-65
2021/10/21 12:39:02;;;;;;;4.72;1.40;;;;;;;;;;10342829;28;20060;-65
2021/10/21 12:44:00;;;;;;;5.33;1.43;;;;;;;;;;10339401;28;20128;-65
2021/10/21 12:49:07;;;;;;;8.35;1.15;;;;;;;;;;10335576;28;20037;-65
2021/10/21 12:54:04;;;;;;;6.75;0.98;;;;;;;;;;10337705;28;20029;-64
2021/10/21 12:59:03;;;;;;;2.77;1.10;;;;;;;;;;10331158;28;20491;-65
2021/10/21 13:04:00;;;;;;;;;;;;;;;;;;10339467;28;20032;-65
2021/10/21 13:08:58;;;;;;;10.68;1.88;;;;;;;;;;10356929;28;19947;-65
2021/10/21 13:13:58;;;;;;;7.37;1.60;;;;;;;;;;10338060;28;20025;-65
2021/10/21 13:18:59;;;;;;;4.80;1.08;;;;;;;;;;10328015;28;20051;-65
2021/10/21 13:23:57;;;;;;;6.93;1.08;;;;;;;;;;10316824;28;20065;-65
2021/10/21 13:28:54;;;;;;;8.03;1.13;;;;;;;;;;10339957;28;20148;-65
2021/10/21 13:33:52;;;;;;;0.33;0.30;;;;;;;;;;10332805;28;20226;-62
2021/10/21 13:38:51;;;;;;;2.97;0.67;;;;;;;;;;10322055;28;20041;-62
2021/10/21 13:43:48;;;;;;;3.10;0.77;;;;;;;;;;10338762;28;20033;-63
2021/10/21 13:48:46;;;;;;;4.72;1.05;;;;;;;;;;10277890;23;20053;-61
2021/10/21 13:53:43;;;;;;;6.17;1.10;;;;;;;;;;10187928;28;21097;-60
2021/10/21 13:58:41;;;;;;;2.50;0.60;;;;;;;;;;10188555;28;20046;-59
2021/10/21 14:03:38;;;;;;;2.00;0.60;;;;;;;;;;10215812;28;20089;-59
2021/10/21 14:08:37;;;;;;;7.83;1.20;;;;;;;;;;10186057;28;20504;-60
2021/10/21 14:13:35;;;;;;;10.27;0.95;;;;;;;;;;10216411;28;20567;-61
2021/10/21 14:18:33;;;;;;;7.50;1.50;;;;;;;;;;10258591;23;20141;-63
2021/10/21 14:23:31;;;;;;;6.15;1.50;;;;;;;;;;10256164;28;20129;-63
2021/10/21 14:28:28;;;;;;;7.07;1.67;;;;;;;;;;10257372;28;20052;-64
2021/10/21 14:33:26;;;;;;;5.70;1.17;;;;;;;;;;10258157;28;20416;-63
2021/10/21 14:38:23;;;;;;;8.80;1.30;;;;;;;;;;10231877;22;20047;-61
2021/10/21 14:43:21;;;;;;;5.03;1.03;;;;;;;;;;10208270;28;20363;-61
2021/10/21 14:48:19;;;;;;;5.63;1.90;;;;;;;;;;10168396;28;20053;-61
2021/10/21 14:53:17;;;;;;;12.73;1.88;;;;;;;;;;10168709;28;20090;-60
2021/10/21 14:58:14;;;;;;;12.53;2.57;;;;;;;;;;10172370;28;20090;-60
2021/10/21 15:03:12;;;;;;;14.27;2.60;;;;;;;;;;10185877;28;20049;-61
2021/10/21 15:08:27;;;;;;;11.60;2.53;;;;;;;;;;10238837;28;20037;-61
2021/10/21 15:23:45;;;;;;;9.25;2.10;;;;;;;;;;10261735;28;20068;-60
2021/10/21 15:28:43;;;;;;;6.03;2.00;;;;;;;;;;10252469;28;20038;-60
2021/10/21 15:33:40;;;;;;;16.03;2.97;;;;;;;;;;10257302;28;20041;-61
2021/10/21 15:38:58;;;;;;;11.93;1.77;;;;;;;;;;10263056;28;20443;-61
2021/10/21 15:44:05;;;;;;;12.52;1.35;;;;;;;;;;10264722;28;20124;-61
2021/10/21 16:15:00;;;;;;;8.10;1.37;;;;;;;;;;10255820;28;20170;-61
2021/10/21 16:20:11;;;;;;;5.88;1.13;;;;;;;;;;10253482;28;20038;-60
2021/10/21 16:30:25;;;;;;;8.35;1.83;;;;;;;;;;10253229;28;20049;-61
2021/10/21 16:35:22;;;;;;;12.67;1.40;;;;;;;;;;10224586;28;20041;-60
2021/10/21 16:40:20;;;;;;;7.70;1.53;;;;;;;;;;10237635;28;20088;-61
2021/10/21 16:45:17;;;;;;;5.83;1.60;;;;;;;;;;10241169;28;20037;-60
2021/10/21 16:50:15;;;;;;;9.20;1.37;;;;;;;;;;10240865;28;20030;-60
2021/10/21 16:55:13;;;;;;;;;;;;;;;;;;10236807;28;20117;-60
2021/10/21 17:00:11;;;;;;;6.25;1.83;;;;;;;;;;10258837;28;20075;-60
2021/10/21 17:05:09;;;;;;;10.70;2.60;;;;;;;;;;10246290;28;20041;-61
2021/10/21 17:10:07;;;;;;;8.55;1.38;;;;;;;;;;10248844;28;20120;-58
2021/10/21 17:15:05;;;;;;;8.47;1.43;;;;;;;;;;10247873;28;20117;-61
2021/10/21 17:20:03;;;;;;;3.20;1.52;;;;;;;;;;10252973;28;20264;-62
2021/10/21 17:25:00;;;;;;;5.20;1.40;;;;;;;;;;10244937;28;20168;-60
2021/10/21 17:29:58;;;;;;;5.50;1.10;;;;;;;;;;10240903;28;20046;-61
2021/10/21 17:34:57;;;;;;;4.07;1.00;;;;;;;;;;10254450;28;20392;-61
2021/10/21 17:39:55;;;;;;;7.15;1.10;;;;;;;;;;10252892;28;20411;-61
2021/10/21 17:44:52;;;;;;;13.10;1.77;;;;;;;;;;10224361;28;20042;-60
2021/10/21 17:49:49;;;;;;;7.03;1.40;;;;;;;;;;10234260;28;20514;-61
2021/10/21 17:54:47;;;;;;;16.47;1.60;;;;;;;;;;10240591;28;20515;-60
2021/10/21 17:59:44;;;;;;;7.80;1.27;;;;;;;;;;10247644;28;20029;-60
2021/10/21 18:04:42;;;;;;;5.03;0.80;;;;;;;;;;10257208;28;20561;-61
2021/10/21 18:09:40;;;;;;;3.50;1.10;;;;;;;;;;10248982;28;20873;-61
2021/10/21 18:14:38;;;;;;;10.38;1.60;;;;;;;;;;10244714;28;20042;-61
2021/10/21 18:19:36;;;;;;;11.52;1.60;;;;;;;;;;10239789;28;20411;-61
2021/10/21 18:24:33;;;;;;;19.07;2.93;;;;;;;;;;10244409;28;20064;-62
2021/10/21 18:29:31;;;;;;;7.17;1.80;;;;;;;;;;10253022;28;20125;-61
2021/10/21 18:34:28;;;;;;;13.90;3.13;;;;;;;;;;10250350;28;20040;-61
2021/10/21 18:39:26;;;;;;;9.97;2.37;;;;;;;;;;10234262;28;20057;-60
2021/10/21 18:44:23;;;;;;;13.77;1.77;;;;;;;;;;10246458;28;20061;-59
2021/10/21 18:49:21;;;;;;;15.30;2.57;;;;;;;;;;10249037;28;20487;-60
2021/10/21 18:54:18;;;;;;;6.30;1.27;;;;;;;;;;10239152;28;20037;-61
2021/10/21 18:59:16;;;;;;;5.57;1.10;;;;;;;;;;10248691;28;20269;-61
2021/10/21 19:04:13;;;;;;;3.70;1.43;;;;;;;;;;10243385;28;20037;-61
2021/10/21 19:09:11;;;;;;;2.97;1.00;;;;;;;;;;10247276;28;20467;-61
2021/10/21 19:14:11;;;;;;;11.67;1.27;;;;;;;;;;10253703;28;20491;-61
2021/10/21 19:19:09;;;;;;;6.60;1.35;;;;;;;;;;10244853;28;20463;-60
2021/10/21 19:24:06;;;;;;;4.50;1.08;;;;;;;;;;10232533;28;20447;-60
2021/10/21 19:29:04;;;;;;;8.23;0.90;;;;;;;;;;10245265;28;20034;-61
2021/10/21 19:34:02;;;;;;;10.45;1.52;;;;;;;;;;10228924;28;20038;-61
2021/10/21 19:38:59;;;;;;;8.97;1.27;;;;;;;;;;10236618;28;20050;-61
2021/10/21 19:43:57;;;;;;;6.07;1.17;;;;;;;;;;10238542;28;20046;-61
2021/10/21 19:48:55;;;;;;;8.30;1.73;;;;;;;;;;10233668;28;20089;-61
2021/10/21 19:53:52;;;;;;;10.97;2.43;;;;;;;;;;10236699;28;20065;-61
2021/10/21 19:58:50;;;;;;;13.13;1.70;;;;;;;;;;10236774;28;20037;-62
2021/10/21 20:03:48;;;;;;;13.33;1.57;;;;;;;;;;10231523;28;20171;-61
2021/10/21 20:08:45;;;;;;;9.95;1.65;;;;;;;;;;10233092;28;20053;-58
2021/10/21 20:13:43;;;;;;;11.57;2.07;;;;;;;;;;10237885;28;20481;-61
2021/10/21 20:18:40;;;;;;;16.77;2.30;;;;;;;;;;10241853;28;20026;-61
2021/10/21 20:23:41;;;;;;;9.20;1.57;;;;;;;;;;10235043;28;20045;-57
2021/10/21 20:28:39;;;;;;;15.52;1.70;;;;;;;;;;10216453;28;20038;-61
2021/10/21 20:33:37;;;;;;;4.23;1.13;;;;;;;;;;10232075;28;20041;-61
2021/10/21 20:38:34;;;;;;;4.90;1.70;;;;;;;;;;10222991;28;20038;-58
2021/10/21 20:43:32;;;;;;;5.33;1.10;;;;;;;;;;10226124;28;20038;-60
2021/10/21 20:48:30;;;;;;;9.37;1.80;;;;;;;;;;10228242;28;20444;-60
2021/10/21 20:53:27;;;;;;;8.07;2.00;;;;;;;;;;10251503;28;20273;-58
2021/10/21 20:58:25;;;;;;;8.20;1.47;;;;;;;;;;10243478;28;20038;-59
2021/10/21 21:03:23;;;;;;;17.90;2.53;;;;;;;;;;10240510;28;20323;-60
2021/10/21 21:13:39;;;;;;;12.30;1.88;;;;;;;;;;10227339;28;20531;-63
2021/10/21 21:18:36;;;;;;;6.97;1.35;;;;;;;;;;10211477;28;20039;-63
2021/10/21 21:23:36;;;;;;;8.40;2.17;;;;;;;;;;10244659;28;20022;-63
2021/10/21 21:28:33;;;;;;;7.07;1.55;;;;;;;;;;10248877;28;20547;-64
2021/10/21 21:33:31;;;;;;;7.43;0.97;;;;;;;;;;10241227;28;20073;-59
2021/10/21 21:38:28;;;;;;;8.67;2.20;;;;;;;;;;10246104;28;20030;-62
2021/10/21 21:43:25;;;;;;;4.60;1.33;;;;;;;;;;10253132;28;20018;-63
2021/10/21 21:48:23;;;;;;;10.37;1.97;;;;;;;;;;10255496;28;20095;-63
2021/10/21 21:53:20;;;;;;;13.53;2.40;;;;;;;;;;10250295;28;20985;-62
2021/10/21 21:58:18;;;;;;;9.47;2.07;;;;;;;;;;10255331;28;20030;-62
2021/10/21 22:03:15;;;;;;;4.80;1.30;;;;;;;;;;10224385;28;20037;-63
2021/10/21 22:08:12;;;;;;;10.27;1.43;;;;;;;;;;10253216;28;20438;-62
2021/10/21 22:13:10;;;;;;;4.13;0.90;;;;;;;;;;10284756;28;20615;-62
2021/10/21 22:18:08;;;;;;;7.97;0.98;;;;;;;;;;10249514;28;20042;-65
2021/10/21 22:23:06;;;;;;;2.27;0.93;;;;;;;;;;10249154;28;20519;-64
2021/10/21 22:28:03;;;;;;;5.00;1.33;;;;;;;;;;10244935;28;20538;-64
2021/10/21 22:33:01;;;;;;;1.60;0.77;;;;;;;;;;10240543;28;20046;-64
2021/10/21 22:37:59;;;;;;;6.22;0.95;;;;;;;;;;10243048;28;20038;-64
2021/10/21 22:42:57;;;;;;;14.57;1.00;;;;;;;;;;10245808;28;20037;-62
2021/10/21 22:47:57;;;;;;;7.43;1.43;;;;;;;;;;10246893;28;20472;-63
2021/10/21 22:52:55;;;;;;;6.32;1.23;;;;;;;;;;10250660;28;20285;-64
2021/10/21 22:57:56;;;;;;;;;;;;;;;;;;10233638;28;20078;-64
2021/10/21 23:03:04;;;;;;;3.20;0.77;;;;;;;;;;10239053;28;19921;-63
2021/10/21 23:08:03;;;;;;;0.95;0.40;;;;;;;;;;10265726;28;20122;-63
2021/10/21 23:13:02;;;;;;;5.07;0.93;;;;;;;;;;10287512;28;20069;-63
2021/10/21 23:18:00;;;;;;;4.82;1.08;;;;;;;;;;10281923;28;20060;-64
2021/10/21 23:22:58;;;;;;;4.25;0.93;;;;;;;;;;10276542;28;20409;-65
2021/10/21 23:27:56;;;;;;;;;;;;;;;;;;10271068;28;20312;-65
2021/10/21 23:32:54;;;;;;;2.90;0.90;;;;;;;;;;10294399;28;20015;-62
2021/10/21 23:37:51;;;;;;;3.10;0.77;;;;;;;;;;10292901;28;20033;-64
2021/10/21 23:42:49;;;;;;;1.83;0.33;;;;;;;;;;10287817;28;20141;-64
2021/10/21 23:47:46;;;;;;;5.43;0.73;;;;;;;;;;10308169;28;20047;-64
2021/10/21 23:52:44;;;;;;;2.47;0.63;;;;;;;;;;10259359;28;20329;-63
2021/10/21 23:57:41;;;;;;;0.40;0.40;;;;;;;;;;10296417;28;20033;-63
